Time;durP1;ratioP1;P1;durP2;ratioP2;P2;SDS_P1;SDS_P2;PMS_P1;PMS_P2;Temp;Humidity;BMP_temperature;BMP_pressure;BME280_temperature;BME280_humidity;BME280_pressure;Samples;Min_cycle;Max_cycle;Signal;HPM_P1;HPM_P2
2021/12/10 00:01:25;;;;;;;23.35;10.77;;;;;;;2.63;90.36;99784.63;5094982;28;20020;-62
2021/12/10 00:03:54;;;;;;;19.95;9.70;;;;;;;2.65;90.35;99776.81;5094795;28;20034;-63
2021/12/10 00:06:19;;;;;;;25.25;11.85;;;;;;;2.67;90.17;99781.25;5094810;28;20099;-62
2021/12/10 00:08:52;;;;;;;22.85;9.68;;;;;;;2.69;90.20;99765.63;5094934;28;20142;-62
2021/12/10 00:11:23;;;;;;;21.40;11.15;;;;;;;2.69;89.99;99755.19;5094827;28;20489;-62
2021/12/10 00:13:49;;;;;;;18.95;10.23;;;;;;;2.70;89.91;99762.19;5094759;28;20028;-62
2021/12/10 00:16:17;;;;;;;23.17;11.02;;;;;;;2.70;90.22;99763.06;5094946;28;20372;-62
2021/12/10 00:18:51;;;;;;;19.55;9.88;;;;;;;2.75;89.66;99739.72;5094620;28;20035;-62
2021/12/10 00:21:17;;;;;;;20.73;9.95;;;;;;;2.78;89.60;99731.94;5094779;28;20079;-62
2021/12/10 00:23:55;;;;;;;17.17;9.10;;;;;;;2.83;88.91;99750.34;5094609;28;20484;-62
2021/12/10 00:26:21;;;;;;;24.77;9.90;;;;;;;2.86;89.06;99734.72;5094495;28;20028;-62
2021/12/10 00:28:48;;;;;;;20.25;9.43;;;;;;;2.86;88.64;99717.34;5094010;28;20059;-63
2021/12/10 00:34:12;;;;;;;22.75;8.77;;;;;;;2.88;88.47;99713.06;5094709;28;20461;-62
2021/12/10 00:36:39;;;;;;;17.67;7.78;;;;;;;2.91;87.95;99688.75;5094334;28;20028;-62
2021/12/10 00:39:11;;;;;;;18.08;7.82;;;;;;;2.94;88.39;99696.66;5094546;28;20028;-61
2021/12/10 00:41:38;;;;;;;17.65;8.15;;;;;;;2.95;87.56;99664.50;5094135;28;20376;-62
2021/12/10 00:44:04;;;;;;;13.57;6.63;;;;;;;2.94;87.75;99674.06;5094190;28;20039;-61
2021/12/10 00:46:30;;;;;;;15.77;6.65;;;;;;;2.96;87.35;99681.94;5094115;28;20381;-62
2021/12/10 00:48:56;;;;;;;14.05;7.38;;;;;;;2.94;86.66;99667.97;5093768;28;20058;-62
2021/12/10 00:51:22;;;;;;;13.52;6.95;;;;;;;2.93;87.53;99660.97;5094045;28;20492;-62
2021/12/10 00:53:48;;;;;;;14.63;7.40;;;;;;;2.89;87.54;99649.59;5094119;28;20030;-62
2021/12/10 00:56:15;;;;;;;18.90;7.20;;;;;;;2.89;87.13;99653.94;5094036;28;20500;-62
2021/12/10 00:58:45;;;;;;;14.60;6.70;;;;;;;2.86;87.09;99646.03;5093839;28;20051;-62
2021/12/10 01:01:17;;;;;;;17.17;7.55;;;;;;;2.83;87.26;99640.75;5093887;28;20039;-62
2021/12/10 01:03:54;;;;;;;15.82;6.95;;;;;;;2.83;87.11;99633.81;5093936;28;20024;-62
2021/12/10 01:06:21;;;;;;;23.23;7.40;;;;;;;2.78;87.17;99622.38;5093738;28;20098;-62
2021/12/10 01:08:52;;;;;;;13.63;6.80;;;;;;;2.76;87.39;99613.66;5093611;28;20031;-62
2021/12/10 01:11:24;;;;;;;16.05;5.57;;;;;;;2.73;87.07;99614.44;5093556;28;20393;-62
2021/12/10 01:13:55;;;;;;;;;;;;;;;2.75;87.13;99606.69;5094202;28;20429;-62
2021/12/10 01:25:03;;;;;;;15.27;6.60;;;;;;;2.51;87.86;99567.88;5012052;28;20040;-62
2021/12/10 01:27:33;;;;;;;15.40;7.20;;;;;;;2.48;88.22;99567.81;5011299;28;20037;-62
2021/12/10 01:30:22;;;;;;;14.80;6.18;;;;;;;2.44;87.95;99559.06;5011315;28;20414;-63
2021/12/10 01:32:56;;;;;;;15.20;6.45;;;;;;;2.47;87.97;99555.63;5011361;28;20046;-61
2021/12/10 01:35:25;;;;;;;17.92;7.00;;;;;;;2.47;87.86;99551.28;5011456;28;20065;-62
2021/12/10 01:37:53;;;;;;;22.27;6.93;;;;;;;2.44;87.97;99540.81;5011448;28;20044;-62
2021/12/10 01:40:21;;;;;;;19.25;6.22;;;;;;;2.45;87.72;99531.25;5011426;28;20462;-62
2021/12/10 01:42:53;;;;;;;18.60;6.28;;;;;;;2.45;87.83;99520.84;5011197;28;20092;-62
2021/12/10 01:45:31;;;;;;;17.45;6.72;;;;;;;2.45;87.83;99520.84;5011366;28;20042;-62
2021/12/10 01:48:06;;;;;;;15.77;6.30;;;;;;;2.45;87.93;99520.84;5011126;28;20482;-61
2021/12/10 01:50:37;;;;;;;16.75;6.22;;;;;;;2.43;87.64;99515.56;5011219;28;20463;-62
2021/12/10 01:53:07;;;;;;;14.52;6.25;;;;;;;2.42;87.65;99519.03;5011196;28;20109;-63
2021/12/10 01:55:36;;;;;;;16.05;6.38;;;;;;;2.41;87.86;99519.00;5011214;28;20091;-62
2021/12/10 01:58:07;;;;;;;15.75;6.05;;;;;;;2.41;87.72;99508.59;5031523;28;20404;-62
2021/12/10 02:00:35;;;;;;;13.38;5.50;;;;;;;2.40;87.56;99505.09;5095550;28;20028;-62
2021/12/10 02:03:06;;;;;;;11.10;5.80;;;;;;;2.38;88.04;99504.16;5097270;28;20035;-62
2021/12/10 02:05:32;;;;;;;13.40;5.50;;;;;;;2.36;87.75;99500.66;5097310;28;20028;-62
2021/12/10 02:07:58;;;;;;;10.85;5.25;;;;;;;2.35;87.87;99495.41;5097067;28;20377;-62
2021/12/10 02:10:26;;;;;;;14.23;5.82;;;;;;;2.33;87.78;99489.28;5097490;28;20107;-62
2021/12/10 02:12:56;;;;;;;10.65;5.10;;;;;;;2.35;87.77;99490.19;5097172;28;20488;-62
2021/12/10 02:15:26;;;;;;;9.98;4.93;;;;;;;2.33;88.00;99478.84;5097050;28;20024;-62
2021/12/10 02:17:52;;;;;;;10.88;5.45;;;;;;;2.33;87.75;99474.53;5097031;28;20028;-62
2021/12/10 02:20:25;;;;;;;14.05;5.25;;;;;;;2.33;87.92;99464.09;5096895;28;20024;-62
2021/12/10 02:22:51;;;;;;;11.05;4.25;;;;;;;2.36;87.46;99460.69;5096779;28;20156;-62
2021/12/10 02:25:26;;;;;;;18.35;4.70;;;;;;;2.40;87.58;99459.88;5097087;28;20380;-62
2021/12/10 02:27:52;;;;;;;14.48;5.07;;;;;;;2.32;87.75;99454.53;5096467;28;20047;-62
2021/12/10 02:30:19;;;;;;;8.77;4.10;;;;;;;2.34;87.43;99457.16;5096834;28;20028;-62
2021/12/10 02:32:45;;;;;;;16.85;4.53;;;;;;;2.34;87.59;99438.91;5096867;28;20104;-62
2021/12/10 02:35:13;;;;;;;13.60;4.40;;;;;;;2.32;87.59;99428.47;5096605;28;20052;-62
2021/12/10 02:37:43;;;;;;;7.22;3.97;;;;;;;2.35;87.38;99417.19;5078712;28;20407;-62
2021/12/10 02:40:13;;;;;;;15.95;4.00;;;;;;;2.35;87.09;99420.69;5096611;28;20110;-62
2021/12/10 02:42:39;;;;;;;10.77;3.63;;;;;;;2.36;87.11;99406.81;5096494;28;20465;-62
2021/12/10 02:45:10;;;;;;;13.63;3.78;;;;;;;2.41;87.17;99413.00;5096524;28;20050;-62
2021/12/10 02:47:40;;;;;;;11.43;3.90;;;;;;;2.37;87.05;99405.97;5096362;28;20020;-62
2021/12/10 02:50:09;;;;;;;10.75;3.92;;;;;;;2.37;87.09;99402.50;5096320;28;20043;-62
2021/12/10 02:52:35;;;;;;;12.55;3.92;;;;;;;2.39;87.05;99398.16;5096354;28;20040;-62
2021/12/10 02:55:01;;;;;;;10.48;4.03;;;;;;;2.39;86.92;99396.44;5096570;28;20028;-62
2021/12/10 02:57:27;;;;;;;8.27;3.35;;;;;;;2.40;86.51;99403.44;5096297;28;20028;-62
2021/12/10 02:59:53;;;;;;;7.03;3.33;;;;;;;2.41;86.66;99386.06;5096390;28;20409;-62
2021/12/10 03:02:22;;;;;;;12.73;3.83;;;;;;;2.44;86.98;99387.00;5096060;28;20093;-63
2021/12/10 03:04:49;;;;;;;13.75;3.88;;;;;;;2.43;86.17;99369.59;5096421;28;20035;-62
2021/12/10 03:07:18;;;;;;;10.00;3.60;;;;;;;2.44;86.72;99373.97;5096088;28;20055;-62
2021/12/10 03:09:47;;;;;;;11.82;4.07;;;;;;;2.42;86.37;99377.38;5077982;28;20032;-62
2021/12/10 03:12:15;;;;;;;11.20;3.60;;;;;;;2.42;86.37;99370.44;5095889;28;20032;-62
2021/12/10 03:14:43;;;;;;;14.27;4.30;;;;;;;2.43;86.41;99368.72;5095975;28;20047;-62
2021/12/10 03:17:18;;;;;;;10.63;3.40;;;;;;;2.42;86.14;99366.97;5095879;28;20078;-63
2021/12/10 03:19:44;;;;;;;8.70;3.53;;;;;;;2.41;86.11;99353.06;5095863;28;20043;-62
2021/12/10 03:22:15;;;;;;;8.50;3.55;;;;;;;2.42;86.32;99354.81;5095887;28;20027;-62
2021/12/10 03:24:40;;;;;;;7.68;3.70;;;;;;;2.42;86.02;99344.38;5095847;28;20376;-62
2021/12/10 03:27:08;;;;;;;9.20;3.53;;;;;;;2.43;86.21;99340.03;5095581;28;20491;-62
2021/12/10 03:29:37;;;;;;;10.88;4.03;;;;;;;2.41;85.78;99328.72;5095597;28;20024;-62
2021/12/10 03:32:08;;;;;;;6.88;3.50;;;;;;;2.41;85.92;99328.72;5095664;28;20488;-62
2021/12/10 03:34:34;;;;;;;11.23;3.58;;;;;;;2.43;85.67;99324.41;5095534;28;20035;-62
2021/12/10 03:37:01;;;;;;;8.95;3.50;;;;;;;2.43;85.83;99317.44;5095601;28;20028;-62
2021/12/10 03:39:27;;;;;;;6.93;3.22;;;;;;;2.46;85.52;99321.84;5095715;28;20032;-62
2021/12/10 03:41:55;;;;;;;7.80;3.38;;;;;;;2.47;85.22;99321.88;5095741;28;20513;-62
2021/12/10 03:44:21;;;;;;;9.40;3.78;;;;;;;2.46;85.23;99311.44;5095463;28;20035;-62
2021/12/10 03:46:47;;;;;;;9.10;3.30;;;;;;;2.47;85.47;99307.97;5095283;28;20028;-62
2021/12/10 03:49:14;;;;;;;6.90;2.88;;;;;;;2.47;85.50;99301.00;5095343;28;20383;-62
2021/12/10 03:51:40;;;;;;;10.20;3.50;;;;;;;2.48;85.36;99308.00;5095281;28;20036;-62
2021/12/10 03:54:07;;;;;;;6.93;3.33;;;;;;;2.48;85.17;99302.78;5095263;28;20030;-62
2021/12/10 03:56:36;;;;;;;7.85;3.63;;;;;;;2.51;84.83;99296.75;5095194;28;20024;-62
2021/12/10 03:59:08;;;;;;;11.10;3.28;;;;;;;2.55;84.94;99300.28;5095025;28;20055;-62
2021/12/10 04:01:36;;;;;;;12.25;3.67;;;;;;;2.56;84.73;99291.59;5095168;28;20100;-62
2021/12/10 04:04:04;;;;;;;8.85;3.40;;;;;;;2.61;84.49;99283.03;5076780;28;20409;-62
2021/12/10 04:06:31;;;;;;;8.40;3.00;;;;;;;2.60;84.52;99272.56;5094839;28;20030;-62
2021/12/10 04:08:58;;;;;;;11.98;3.60;;;;;;;2.61;84.98;99275.22;5094931;28;20056;-62
2021/12/10 04:11:25;;;;;;;8.00;3.25;;;;;;;2.60;84.48;99265.59;5094957;28;20530;-62
2021/12/10 04:13:52;;;;;;;7.43;3.08;;;;;;;2.63;84.53;99273.50;5094705;28;20069;-62
2021/12/10 04:16:19;;;;;;;12.70;3.53;;;;;;;2.62;84.75;99258.72;5094840;28;20027;-62
2021/12/10 04:18:47;;;;;;;12.38;3.30;;;;;;;2.64;84.47;99266.53;5094627;28;20024;-62
2021/12/10 04:21:14;;;;;;;11.48;3.35;;;;;;;2.64;84.92;99248.28;5094938;28;20048;-62
2021/12/10 04:23:43;;;;;;;7.68;3.25;;;;;;;2.63;85.11;99250.03;5094372;28;20065;-62
2021/12/10 04:26:11;;;;;;;10.80;3.17;;;;;;;2.64;84.75;99249.16;5094772;28;20081;-62
2021/12/10 04:28:37;;;;;;;7.75;3.00;;;;;;;2.65;84.65;99237.00;5093943;28;20056;-62
2021/12/10 04:31:02;;;;;;;9.90;2.85;;;;;;;2.70;84.72;99231.03;5094777;28;20370;-62
2021/12/10 04:33:28;;;;;;;8.13;3.28;;;;;;;2.66;85.02;99237.03;5094633;28;20069;-62
2021/12/10 04:35:56;;;;;;;8.35;3.30;;;;;;;2.66;85.08;99215.31;5094616;28;20034;-62
2021/12/10 04:38:25;;;;;;;12.05;3.05;;;;;;;2.66;84.97;99215.31;5094286;28;20455;-62
2021/12/10 04:40:52;;;;;;;8.57;3.65;;;;;;;2.66;84.65;99208.38;5094583;28;20118;-61
2021/12/10 04:43:28;;;;;;;8.85;3.08;;;;;;;2.68;84.51;99204.03;5094327;28;20028;-62
2021/12/10 04:45:55;;;;;;;11.13;3.40;;;;;;;2.72;84.20;99195.41;5094330;28;20051;-62
2021/12/10 04:48:21;;;;;;;6.63;2.80;;;;;;;2.75;84.31;99191.97;5093940;28;20035;-62
2021/12/10 04:50:47;;;;;;;8.27;2.60;;;;;;;2.78;83.99;99189.41;5094194;28;20059;-62
2021/12/10 04:53:14;;;;;;;9.43;3.08;;;;;;;2.81;84.12;99184.22;5094231;28;20016;-62
2021/12/10 04:55:40;;;;;;;6.03;2.95;;;;;;;2.83;84.30;99173.84;5093890;28;20036;-62
2021/12/10 04:58:07;;;;;;;8.70;3.40;;;;;;;2.85;84.08;99166.91;5093867;28;20526;-62
2021/12/10 05:00:44;;;;;;;11.00;3.58;;;;;;;2.84;83.75;99163.41;5094037;28;20032;-62
2021/12/10 05:03:11;;;;;;;9.65;3.45;;;;;;;2.84;83.52;99152.13;5093780;28;20032;-62
2021/12/10 05:05:38;;;;;;;10.30;3.83;;;;;;;2.83;82.99;99151.25;5093748;28;20028;-62
2021/12/10 05:08:05;;;;;;;8.80;3.80;;;;;;;2.84;83.64;99157.34;5093658;28;20399;-62
2021/12/10 05:10:31;;;;;;;10.68;3.42;;;;;;;2.83;82.91;99142.53;5093647;28;20081;-62
2021/12/10 05:12:57;;;;;;;7.65;3.10;;;;;;;2.82;83.32;99140.78;5093792;28;20032;-62
2021/12/10 05:15:27;;;;;;;7.97;3.30;;;;;;;2.79;82.91;99127.72;5093950;28;20035;-62
2021/12/10 05:17:54;;;;;;;5.07;2.85;;;;;;;2.80;82.97;99140.75;5093517;28;20357;-62
2021/12/10 05:20:33;;;;;;;9.95;2.95;;;;;;;2.80;82.96;99135.53;5093905;28;20058;-62
2021/12/10 05:22:59;;;;;;;8.75;2.85;;;;;;;2.79;83.13;99139.00;5093502;28;20061;-62
2021/12/10 05:25:27;;;;;;;8.88;3.47;;;;;;;2.77;83.73;99130.28;5093438;28;20059;-62
2021/12/10 05:27:54;;;;;;;9.98;3.10;;;;;;;2.76;84.08;99126.78;5093148;28;20048;-62
2021/12/10 05:30:23;;;;;;;8.98;2.90;;;;;;;2.75;84.40;99130.25;5093716;28;20032;-62
2021/12/10 05:32:50;;;;;;;9.68;2.83;;;;;;;2.73;84.62;99126.75;5093373;28;20435;-62
2021/12/10 05:35:16;;;;;;;11.38;2.90;;;;;;;2.72;84.99;99121.50;5092473;28;20168;-62
2021/12/10 05:37:42;;;;;;;5.88;3.00;;;;;;;2.72;84.58;99121.50;5093361;28;20031;-62
2021/12/10 05:40:12;;;;;;;7.45;2.80;;;;;;;2.72;84.72;99116.28;5093256;28;20466;-62
2021/12/10 05:42:40;;;;;;;7.63;2.40;;;;;;;2.72;84.47;99114.56;5093352;28;20032;-62
2021/12/10 05:45:07;;;;;;;6.30;2.65;;;;;;;2.72;84.62;99108.47;5093316;28;20107;-62
2021/12/10 05:47:32;;;;;;;10.65;2.80;;;;;;;2.74;84.64;99109.34;5093159;28;20059;-62
2021/12/10 05:49:58;;;;;;;7.88;2.80;;;;;;;2.76;84.25;99107.66;5093222;28;20079;-62
2021/12/10 05:52:24;;;;;;;11.10;2.58;;;;;;;2.78;84.20;99103.31;5093358;28;20385;-62
2021/12/10 05:54:52;;;;;;;8.77;2.58;;;;;;;2.81;84.44;99102.50;5093179;28;20103;-62
2021/12/10 05:57:18;;;;;;;10.50;2.60;;;;;;;2.83;83.67;99098.22;5093403;28;20032;-62
2021/12/10 05:59:44;;;;;;;9.77;2.60;;;;;;;2.84;83.72;99107.78;5093196;28;20039;-62
2021/12/10 06:02:10;;;;;;;7.28;2.55;;;;;;;2.86;83.42;99095.63;5074986;28;20032;-62
2021/12/10 06:04:36;;;;;;;8.57;2.50;;;;;;;2.89;83.54;99095.66;5093096;28;20028;-62
2021/12/10 06:07:04;;;;;;;7.53;2.70;;;;;;;2.93;83.51;99087.91;5093089;28;20035;-62
2021/12/10 06:09:31;;;;;;;12.98;2.65;;;;;;;2.93;83.59;99093.13;5092798;28;20503;-62
2021/12/10 06:12:01;;;;;;;6.25;2.40;;;;;;;2.97;83.15;99094.03;5092997;28;20020;-62
2021/12/10 06:14:26;;;;;;;9.48;2.63;;;;;;;2.97;82.75;99083.59;5093166;28;20030;-62
2021/12/10 06:16:55;;;;;;;7.18;2.53;;;;;;;2.98;83.54;99080.13;5092984;28;20107;-62
2021/12/10 06:19:23;;;;;;;10.20;2.25;;;;;;;2.99;83.23;99087.97;5093046;28;20415;-62
2021/12/10 06:21:48;;;;;;;6.32;2.30;;;;;;;2.99;83.30;99084.47;5092916;28;20024;-63
2021/12/10 06:24:14;;;;;;;6.43;2.30;;;;;;;2.98;83.15;99081.00;5092939;28;20119;-62
2021/12/10 06:26:39;;;;;;;7.63;2.33;;;;;;;2.96;82.83;99081.84;5092908;28;20059;-62
2021/12/10 06:29:06;;;;;;;7.68;2.60;;;;;;;2.94;83.13;99071.38;5092522;28;20048;-62
2021/12/10 06:31:32;;;;;;;7.85;2.60;;;;;;;2.95;83.36;99080.94;5092830;28;20481;-62
2021/12/10 06:33:58;;;;;;;10.65;2.40;;;;;;;2.94;83.13;99076.59;5092733;28;20073;-62
2021/12/10 06:36:24;;;;;;;9.38;2.45;;;;;;;2.94;83.27;99078.34;5092966;28;20031;-62
2021/12/10 06:38:50;;;;;;;7.75;2.40;;;;;;;2.94;83.13;99075.72;5092726;28;20027;-62
2021/12/10 06:41:16;;;;;;;5.25;2.08;;;;;;;2.93;83.22;99074.84;5093013;28;20024;-62
2021/12/10 06:43:43;;;;;;;8.05;2.33;;;;;;;2.94;83.48;99068.78;5092967;28;20027;-62
2021/12/10 06:46:08;;;;;;;8.38;2.55;;;;;;;2.94;83.49;99067.91;5094280;28;20027;-62
2021/12/10 06:48:35;;;;;;;12.65;2.60;;;;;;;2.97;83.14;99065.34;5096360;28;20032;-62
2021/12/10 06:51:09;;;;;;;7.78;2.53;;;;;;;2.96;82.96;99074.91;5096497;28;20031;-62
2021/12/10 06:53:38;;;;;;;7.10;2.40;;;;;;;2.97;83.39;99078.38;5096260;28;20028;-62
2021/12/10 06:56:04;;;;;;;8.25;2.40;;;;;;;2.96;82.90;99074.03;5096521;28;20134;-62
2021/12/10 06:58:33;;;;;;;7.57;2.42;;;;;;;2.97;83.42;99075.78;5096514;28;20107;-61
2021/12/10 07:01:02;;;;;;;11.10;2.40;;;;;;;2.99;83.26;99079.25;5096217;28;20024;-62
2021/12/10 07:03:29;;;;;;;7.75;2.92;;;;;;;2.99;82.94;99087.97;5096163;28;20031;-62
2021/12/10 07:05:58;;;;;;;7.78;2.53;;;;;;;3.00;82.94;99084.53;5096104;28;20032;-63
2021/12/10 07:08:28;;;;;;;13.63;2.65;;;;;;;3.03;82.61;99081.06;5096175;28;20104;-62
2021/12/10 07:10:54;;;;;;;8.70;2.40;;;;;;;3.06;82.93;99085.44;5096174;28;20043;-62
2021/12/10 07:13:19;;;;;;;8.13;2.55;;;;;;;3.05;82.60;99070.66;5095985;28;20030;-62
2021/12/10 07:15:47;;;;;;;12.50;2.72;;;;;;;3.06;82.93;99069.78;5095984;28;20024;-62
2021/12/10 07:18:19;;;;;;;9.65;2.55;;;;;;;3.06;82.96;99072.41;5095824;28;20036;-62
2021/12/10 07:20:45;;;;;;;9.43;2.40;;;;;;;3.06;83.04;99085.44;5095699;28;20082;-62
2021/12/10 07:23:11;;;;;;;8.85;2.50;;;;;;;3.05;83.21;99079.34;5095793;28;20274;-61
2021/12/10 07:25:36;;;;;;;8.98;2.90;;;;;;;3.05;82.85;99073.25;5095866;28;20016;-62
2021/12/10 07:28:02;;;;;;;7.05;2.45;;;;;;;3.04;83.09;99074.09;5095393;28;20512;-62
2021/12/10 07:30:28;;;;;;;7.32;2.40;;;;;;;3.01;82.98;99078.44;5095794;28;20465;-62
2021/12/10 07:32:55;;;;;;;7.78;2.80;;;;;;;3.01;83.01;99072.34;5095529;28;20415;-62
2021/12/10 07:35:26;;;;;;;8.02;2.53;;;;;;;3.01;82.97;99073.22;5095377;28;20028;-63
2021/12/10 07:37:52;;;;;;;15.77;2.38;;;;;;;3.04;82.85;99064.56;5095579;28;20039;-62
2021/12/10 07:40:22;;;;;;;10.27;2.70;;;;;;;3.07;83.04;99066.31;5095498;28;20027;-62
2021/12/10 07:42:57;;;;;;;11.50;2.72;;;;;;;3.08;82.71;99070.66;5095467;28;20024;-62
2021/12/10 07:45:24;;;;;;;6.95;2.40;;;;;;;3.09;82.44;99060.28;5095445;28;20046;-62
2021/12/10 07:47:56;;;;;;;11.10;2.50;;;;;;;3.11;82.38;99061.16;5095053;28;20103;-62
2021/12/10 07:50:27;;;;;;;7.65;2.60;;;;;;;3.13;82.30;99058.56;5095238;28;20016;-62
2021/12/10 07:52:55;;;;;;;9.27;2.40;;;;;;;3.13;82.63;99064.66;5095309;28;20028;-62
2021/12/10 07:55:23;;;;;;;9.88;2.80;;;;;;;3.16;81.70;99069.03;5095317;28;20024;-62
2021/12/10 07:57:51;;;;;;;10.52;2.75;;;;;;;3.17;81.47;99071.69;5094215;28;20034;-62
2021/12/10 08:00:18;;;;;;;8.35;2.47;;;;;;;3.19;81.97;99074.28;5095166;28;20031;-62
2021/12/10 08:02:44;;;;;;;9.65;2.63;;;;;;;3.21;81.87;99076.06;5094883;28;20100;-62
2021/12/10 08:05:17;;;;;;;8.85;2.65;;;;;;;3.22;81.48;99076.94;5095191;28;20532;-62
2021/12/10 08:07:43;;;;;;;9.60;2.53;;;;;;;3.23;81.43;99076.97;5094886;28;20032;-62
2021/12/10 08:10:12;;;;;;;10.98;2.40;;;;;;;3.26;81.39;99083.97;5095041;28;20036;-62
2021/12/10 08:12:37;;;;;;;8.23;2.70;;;;;;;3.27;81.43;99080.47;5094940;28;20028;-62
2021/12/10 08:15:05;;;;;;;8.43;2.60;;;;;;;3.29;81.22;99073.53;5095041;28;20078;-62
2021/12/10 08:17:30;;;;;;;10.27;2.63;;;;;;;3.34;81.24;99070.97;5094590;28;20024;-62
2021/12/10 08:19:56;;;;;;;7.68;2.60;;;;;;;3.32;80.28;99068.34;5094838;28;20028;-62
2021/12/10 08:22:21;;;;;;;6.97;2.45;;;;;;;3.33;81.16;99077.94;5094753;28;20408;-62
2021/12/10 08:24:47;;;;;;;12.00;2.90;;;;;;;3.35;80.74;99078.84;5094798;28;20020;-63
2021/12/10 08:27:13;;;;;;;7.38;2.50;;;;;;;3.38;80.16;99072.75;5094703;28;20031;-62
2021/12/10 08:29:42;;;;;;;11.02;2.72;;;;;;;3.37;80.77;99082.31;5094320;28;20130;-62
2021/12/10 08:32:08;;;;;;;8.82;3.03;;;;;;;3.39;80.58;99080.63;5094316;28;20032;-62
2021/12/10 08:34:34;;;;;;;9.50;2.70;;;;;;;3.40;80.25;99084.09;5076325;28;20046;-62
2021/12/10 08:37:00;;;;;;;8.85;3.17;;;;;;;3.40;80.77;99084.97;5094366;28;20032;-62
2021/12/10 08:39:26;;;;;;;11.77;2.85;;;;;;;3.41;80.80;99086.72;5094517;28;20034;-62
2021/12/10 08:41:55;;;;;;;8.63;2.95;;;;;;;3.42;81.30;99080.63;5094591;28;20111;-62
2021/12/10 08:44:21;;;;;;;8.63;3.17;;;;;;;3.43;80.76;99085.03;5094296;28;20039;-62
2021/12/10 08:46:46;;;;;;;7.75;2.65;;;;;;;3.43;80.60;99084.16;5094119;28;20027;-62
2021/12/10 08:49:13;;;;;;;7.47;2.95;;;;;;;3.46;81.31;99081.53;5093937;28;20020;-62
2021/12/10 08:51:47;;;;;;;9.10;2.75;;;;;;;3.48;81.47;99083.31;5094094;28;20024;-62
2021/12/10 08:54:14;;;;;;;7.95;2.90;;;;;;;3.50;81.05;99084.19;5094178;28;20028;-62
2021/12/10 08:56:40;;;;;;;8.48;2.83;;;;;;;3.52;81.71;99079.03;5094013;28;20468;-62
2021/12/10 08:59:12;;;;;;;14.85;3.28;;;;;;;3.51;80.67;99082.47;5093957;28;20038;-62
2021/12/10 09:01:41;;;;;;;10.05;3.13;;;;;;;3.53;81.31;99086.00;5094085;28;20051;-62
2021/12/10 09:04:08;;;;;;;8.05;3.60;;;;;;;3.53;81.01;99078.16;5094045;28;20086;-62
2021/12/10 09:06:37;;;;;;;14.93;4.10;;;;;;;3.53;81.19;99083.38;5093867;28;20020;-62
2021/12/10 09:09:06;;;;;;;15.82;4.03;;;;;;;3.55;81.12;99088.59;5093661;28;20032;-62
2021/12/10 09:11:33;;;;;;;8.68;3.30;;;;;;;3.56;81.48;99093.88;5093854;28;20027;-62
2021/12/10 09:14:00;;;;;;;13.23;3.88;;;;;;;3.58;80.98;99089.50;5094230;28;20453;-62
2021/12/10 09:16:29;;;;;;;15.70;4.32;;;;;;;3.58;81.41;99094.75;5093487;28;20024;-62
2021/12/10 09:19:00;;;;;;;10.15;3.67;;;;;;;3.62;81.55;99098.25;5093509;28;20031;-62
2021/12/10 09:21:26;;;;;;;11.15;3.65;;;;;;;3.64;81.16;99101.75;5093547;28;20081;-62
2021/12/10 09:23:55;;;;;;;14.25;4.07;;;;;;;3.65;81.17;99098.31;5093705;28;20048;-62
2021/12/10 09:26:25;;;;;;;10.18;3.72;;;;;;;3.67;80.86;99096.56;5093597;28;20039;-63
2021/12/10 09:28:50;;;;;;;12.95;4.03;;;;;;;3.70;80.88;99097.47;5092996;28;20500;-63
2021/12/10 09:31:16;;;;;;;9.10;4.07;;;;;;;3.70;81.17;99102.72;5093563;28;20035;-62
2021/12/10 09:33:42;;;;;;;11.45;4.50;;;;;;;3.73;80.79;99100.13;5093451;28;20024;-62
2021/12/10 09:36:09;;;;;;;10.18;4.13;;;;;;;3.73;80.89;99104.47;5093561;28;20020;-62
2021/12/10 09:38:35;;;;;;;9.55;3.88;;;;;;;3.75;80.79;99102.75;5093363;28;20028;-63
2021/12/10 09:41:06;;;;;;;11.57;3.75;;;;;;;3.77;80.85;99106.28;5093339;28;20034;-62
2021/12/10 09:43:33;;;;;;;13.73;3.60;;;;;;;3.80;80.66;99108.88;5093160;28;20070;-62
2021/12/10 09:45:59;;;;;;;11.38;3.58;;;;;;;3.82;79.71;99107.19;5093466;28;20039;-62
2021/12/10 09:48:26;;;;;;;7.78;3.70;;;;;;;3.85;80.93;99111.53;5093078;28;20047;-62
2021/12/10 09:51:11;;;;;;;11.63;4.25;;;;;;;3.88;80.14;99102.00;5093107;28;20034;-63
2021/12/10 09:53:41;;;;;;;16.60;3.67;;;;;;;3.88;79.68;99107.22;5093247;28;20067;-63
2021/12/10 09:56:08;;;;;;;11.50;3.63;;;;;;;3.90;79.08;99105.53;5092929;28;20036;-62
2021/12/10 09:58:33;;;;;;;13.77;3.70;;;;;;;3.94;79.55;99098.56;5093151;28;20028;-62
2021/12/10 10:01:05;;;;;;;9.55;3.50;;;;;;;3.96;79.72;99095.13;5093246;28;20024;-62
2021/12/10 10:03:35;;;;;;;10.43;3.35;;;;;;;3.99;78.76;99103.00;5093018;28;20511;-62
2021/12/10 10:06:16;;;;;;;7.10;3.58;;;;;;;3.99;79.69;99096.88;5093171;28;20528;-62
2021/12/10 10:08:43;;;;;;;5.40;3.10;;;;;;;4.02;78.84;99102.13;5093034;28;20541;-62
2021/12/10 10:11:13;;;;;;;9.70;3.38;;;;;;;4.04;79.11;99107.38;5093150;28;20024;-62
2021/12/10 10:13:42;;;;;;;7.55;3.22;;;;;;;4.04;79.33;99103.03;5093114;28;20054;-61
2021/12/10 10:16:09;;;;;;;7.20;3.15;;;;;;;4.07;79.05;99107.38;5093008;28;20020;-61
2021/12/10 10:18:37;;;;;;;10.77;3.65;;;;;;;4.09;79.26;99110.91;5092933;28;20031;-61
2021/12/10 10:21:15;;;;;;;9.20;3.17;;;;;;;4.09;78.13;99109.16;5094369;28;20060;-62
2021/12/10 10:23:42;;;;;;;7.70;2.75;;;;;;;4.10;77.98;99110.91;5096965;28;20031;-61
2021/12/10 10:26:14;;;;;;;10.75;3.15;;;;;;;4.12;78.65;99108.31;5097059;28;20472;-61
2021/12/10 10:28:40;;;;;;;8.93;3.03;;;;;;;4.13;78.06;99108.31;5079277;28;20044;-61
2021/12/10 10:31:11;;;;;;;9.00;3.50;;;;;;;4.15;78.25;99113.56;5096879;28;20028;-61
2021/12/10 10:33:42;;;;;;;5.97;2.70;;;;;;;4.16;78.28;99116.22;5096619;28;20028;-61
2021/12/10 10:36:19;;;;;;;10.05;2.97;;;;;;;4.18;78.79;99113.59;5096629;28;20103;-61
2021/12/10 10:38:53;;;;;;;10.82;2.80;;;;;;;4.19;79.10;99110.09;5096818;28;20054;-62
2021/12/10 10:41:21;;;;;;;9.93;3.20;;;;;;;4.22;77.85;99105.78;5096761;28;20027;-62
2021/12/10 10:43:48;;;;;;;8.82;3.30;;;;;;;4.23;78.03;99107.53;5096514;28;20496;-62
2021/12/10 10:46:14;;;;;;;8.45;3.00;;;;;;;4.25;77.86;99108.44;5096543;28;20028;-62
2021/12/10 10:48:42;;;;;;;11.00;2.97;;;;;;;4.26;78.70;99109.31;5096258;28;20028;-62
2021/12/10 10:51:11;;;;;;;13.40;3.92;;;;;;;4.29;77.43;99113.69;5096407;28;20020;-62
2021/12/10 10:53:47;;;;;;;8.40;3.15;;;;;;;4.29;76.94;99111.09;5096545;28;20032;-62
2021/12/10 10:56:43;;;;;;;7.68;2.70;;;;;;;4.28;76.72;99112.78;5096450;28;20032;-62
2021/12/10 10:59:22;;;;;;;9.98;3.22;;;;;;;4.26;76.98;99114.53;5014167;28;20053;-62
2021/12/10 11:01:58;;;;;;;8.48;3.00;;;;;;;4.26;78.26;99114.53;5014235;28;20074;-62
2021/12/10 11:04:28;;;;;;;9.43;3.10;;;;;;;4.28;77.56;99120.63;5014247;28;20042;-62
2021/12/10 11:07:16;;;;;;;8.23;2.92;;;;;;;4.31;77.31;99122.41;5014324;28;20033;-62
2021/12/10 11:09:49;;;;;;;7.90;2.83;;;;;;;4.30;76.51;99115.44;5013998;28;20045;-61
2021/12/10 11:12:27;;;;;;;8.43;2.70;;;;;;;4.30;77.06;99116.31;5014201;28;20030;-62
2021/12/10 11:14:54;;;;;;;13.35;3.10;;;;;;;4.31;76.50;99117.19;5014178;28;20474;-62
2021/12/10 11:17:41;;;;;;;9.30;3.08;;;;;;;4.30;76.01;99124.16;5013798;28;20081;-62
2021/12/10 11:20:21;;;;;;;9.60;2.92;;;;;;;4.31;76.44;99117.19;5013909;28;20034;-62
2021/12/10 11:22:53;;;;;;;9.70;2.80;;;;;;;4.30;77.12;99126.78;5013893;28;20056;-62
2021/12/10 11:25:25;;;;;;;10.68;3.00;;;;;;;4.33;76.80;99123.31;5013916;28;20037;-62
2021/12/10 11:28:01;;;;;;;10.13;2.97;;;;;;;4.34;76.53;99133.78;5013488;28;20034;-62
2021/12/10 11:30:27;;;;;;;8.10;2.80;;;;;;;4.34;76.90;99125.94;5013657;28;20038;-62
2021/12/10 11:33:00;;;;;;;7.75;2.80;;;;;;;4.36;76.64;99124.19;5012132;28;20025;-62
2021/12/10 11:35:35;;;;;;;9.98;2.97;;;;;;;4.41;77.25;99119.91;5040089;28;20393;-62
2021/12/10 11:38:14;;;;;;;6.70;2.80;;;;;;;4.46;76.65;99119.94;5095504;28;20468;-62
2021/12/10 11:40:49;;;;;;;10.30;2.80;;;;;;;4.44;76.64;99135.59;5095667;28;20035;-62
2021/12/10 11:46:26;;;;;;;7.55;2.55;;;;;;;4.46;75.74;99146.97;5095444;28;20040;-62
2021/12/10 11:49:00;;;;;;;13.30;2.67;;;;;;;4.46;74.97;99140.84;5094862;28;20485;-62
2021/12/10 11:51:34;;;;;;;8.35;2.80;;;;;;;4.44;76.08;99132.09;5095355;28;20059;-62
2021/12/10 11:54:08;;;;;;;11.07;2.60;;;;;;;4.46;76.95;99152.19;5095221;28;20035;-62
2021/12/10 11:56:43;;;;;;;9.18;2.75;;;;;;;4.47;76.27;99142.59;5095330;28;20039;-61
2021/12/10 11:59:31;;;;;;;7.70;2.72;;;;;;;4.45;75.18;99149.53;5095145;28;20465;-62
2021/12/10 12:01:59;;;;;;;9.55;2.80;;;;;;;4.43;75.41;99135.59;5095319;28;20077;-62